sensor_id;sensor_type;location;lat;lon;timestamp;pressure;altitude;pressure_sealevel;temperature;humidity
54306;BME280;66145;45.188;5.712;2023-08-21T00:01:10;99526.94;;;25.89;57.67
54306;BME280;66145;45.188;5.712;2023-08-21T00:03:36;99547.88;;;26.02;57.55
54306;BME280;66145;45.188;5.712;2023-08-21T00:06:01;99549.56;;;26.07;57.30
54306;BME280;66145;45.188;5.712;2023-08-21T00:08:26;99553.56;;;26.09;57.86
54306;BME280;66145;45.188;5.712;2023-08-21T00:10:52;99552.78;;;26.09;57.28
54306;BME280;66145;45.188;5.712;2023-08-21T00:13:17;99537.13;;;26.01;57.45
54306;BME280;66145;45.188;5.712;2023-08-21T00:15:44;99545.81;;;25.99;57.61
54306;BME280;66145;45.188;5.712;2023-08-21T00:18:09;99562.97;;;26.05;57.52
54306;BME280;66145;45.188;5.712;2023-08-21T00:20:34;99539.88;;;26.01;57.42
54306;BME280;66145;45.188;5.712;2023-08-21T00:23:00;99556.72;;;26.08;57.75
54306;BME280;66145;45.188;5.712;2023-08-21T00:25:25;99550.56;;;25.99;58.01
54306;BME280;66145;45.188;5.712;2023-08-21T00:27:50;99546.59;;;25.84;58.39
54306;BME280;66145;45.188;5.712;2023-08-21T00:30:16;99544.34;;;25.73;58.29
54306;BME280;66145;45.188;5.712;2023-08-21T00:32:41;99559.53;;;25.79;58.25
54306;BME280;66145;45.188;5.712;2023-08-21T00:35:07;99538.16;;;25.64;58.92
54306;BME280;66145;45.188;5.712;2023-08-21T00:37:32;99553.09;;;25.75;58.42
54306;BME280;66145;45.188;5.712;2023-08-21T00:39:58;99545.69;;;25.79;58.28
54306;BME280;66145;45.188;5.712;2023-08-21T00:42:23;99511.06;;;25.57;58.11
54306;BME280;66145;45.188;5.712;2023-08-21T00:44:48;99521.09;;;25.62;58.60
54306;BME280;66145;45.188;5.712;2023-08-21T00:47:14;99539.53;;;25.70;58.41
54306;BME280;66145;45.188;5.712;2023-08-21T00:49:39;99552.84;;;25.80;58.34
54306;BME280;66145;45.188;5.712;2023-08-21T00:52:08;99559.28;;;25.85;58.24
54306;BME280;66145;45.188;5.712;2023-08-21T00:54:36;99548.81;;;25.78;58.25
54306;BME280;66145;45.188;5.712;2023-08-21T00:57:02;99562.41;;;25.83;58.52
54306;BME280;66145;45.188;5.712;2023-08-21T00:59:28;99562.84;;;25.85;58.65
54306;BME280;66145;45.188;5.712;2023-08-21T01:01:54;99542.38;;;25.74;58.67
54306;BME280;66145;45.188;5.712;2023-08-21T01:04:19;99552.03;;;25.80;58.78
54306;BME280;66145;45.188;5.712;2023-08-21T01:06:44;99549.91;;;25.73;58.92
54306;BME280;66145;45.188;5.712;2023-08-21T01:09:22;99525.84;;;25.61;58.48
54306;BME280;66145;45.188;5.712;2023-08-21T01:12:09;99567.22;;;25.86;58.98
54306;BME280;66145;45.188;5.712;2023-08-21T01:17:11;99558.75;;;25.79;58.95
54306;BME280;66145;45.188;5.712;2023-08-21T01:19:42;99561.84;;;25.77;58.72
54306;BME280;66145;45.188;5.712;2023-08-21T01:22:08;99572.31;;;25.84;58.77
54306;BME280;66145;45.188;5.712;2023-08-21T01:24:34;99561.84;;;25.77;58.64
54306;BME280;66145;45.188;5.712;2023-08-21T01:27:00;99570.28;;;25.81;58.87
54306;BME280;66145;45.188;5.712;2023-08-21T01:29:25;99549.78;;;25.70;58.78
54306;BME280;66145;45.188;5.712;2023-08-21T01:32:07;99570.28;;;25.81;59.23
54306;BME280;66145;45.188;5.712;2023-08-21T01:34:36;99588.53;;;25.82;59.20
54306;BME280;66145;45.188;5.712;2023-08-21T01:37:03;99584.00;;;25.77;59.11
54306;BME280;66145;45.188;5.712;2023-08-21T01:39:29;99579.75;;;25.80;59.21
54306;BME280;66145;45.188;5.712;2023-08-21T01:41:56;99582.97;;;25.82;59.35
54306;BME280;66145;45.188;5.712;2023-08-21T01:44:21;99567.75;;;25.76;59.38
54306;BME280;66145;45.188;5.712;2023-08-21T01:46:47;99586.53;;;25.83;59.46
54306;BME280;66145;45.188;5.712;2023-08-21T01:49:12;99599.22;;;25.84;59.88
54306;BME280;66145;45.188;5.712;2023-08-21T01:51:37;99586.34;;;25.75;60.19
54306;BME280;66145;45.188;5.712;2023-08-21T01:54:03;99592.00;;;25.79;59.91
54306;BME280;66145;45.188;5.712;2023-08-21T01:56:28;99603.16;;;25.83;60.20
54306;BME280;66145;45.188;5.712;2023-08-21T01:58:53;99604.88;;;25.87;60.23
54306;BME280;66145;45.188;5.712;2023-08-21T02:01:19;99597.72;;;25.86;60.00
54306;BME280;66145;45.188;5.712;2023-08-21T02:03:45;99592.00;;;25.79;60.29
54306;BME280;66145;45.188;5.712;2023-08-21T02:06:10;99606.38;;;25.85;60.12
54306;BME280;66145;45.188;5.712;2023-08-21T02:08:35;99587.59;;;25.78;59.86
54306;BME280;66145;45.188;5.712;2023-08-21T02:11:01;99603.97;;;25.83;59.87
54306;BME280;66145;45.188;5.712;2023-08-21T02:13:27;99591.53;;;25.77;59.92
54306;BME280;66145;45.188;5.712;2023-08-21T02:15:52;99605.22;;;25.86;60.05
54306;BME280;66145;45.188;5.712;2023-08-21T02:18:17;99602.91;;;25.88;59.94
54306;BME280;66145;45.188;5.712;2023-08-21T02:20:43;99609.94;;;25.85;59.99
54306;BME280;66145;45.188;5.712;2023-08-21T02:23:08;99613.19;;;25.87;60.03
54306;BME280;66145;45.188;5.712;2023-08-21T02:25:34;99610.41;;;25.87;59.78
54306;BME280;66145;45.188;5.712;2023-08-21T02:27:59;99608.00;;;25.86;59.88
54306;BME280;66145;45.188;5.712;2023-08-21T02:30:25;99595.22;;;25.81;60.24
54306;BME280;66145;45.188;5.712;2023-08-21T02:32:54;99602.91;;;25.88;59.97
54306;BME280;66145;45.188;5.712;2023-08-21T02:35:22;99611.69;;;25.90;59.74
54306;BME280;66145;45.188;5.712;2023-08-21T02:37:48;99612.47;;;25.90;59.88
54306;BME280;66145;45.188;5.712;2023-08-21T02:40:13;99618.00;;;25.90;59.70
54306;BME280;66145;45.188;5.712;2023-08-21T02:42:39;99603.63;;;25.85;59.67
54306;BME280;66145;45.188;5.712;2023-08-21T02:45:05;99612.47;;;25.90;59.76
54306;BME280;66145;45.188;5.712;2023-08-21T02:47:42;99614.09;;;25.91;59.90
54306;BME280;66145;45.188;5.712;2023-08-21T02:50:09;99593.16;;;25.78;60.06
54306;BME280;66145;45.188;5.712;2023-08-21T02:52:36;99608.91;;;25.90;59.40
54306;BME280;66145;45.188;5.712;2023-08-21T02:55:02;99601.19;;;25.83;59.97
54306;BME280;66145;45.188;5.712;2023-08-21T02:57:28;99607.28;;;25.89;60.10
54306;BME280;66145;45.188;5.712;2023-08-21T02:59:54;99599.59;;;25.82;59.81
54306;BME280;66145;45.188;5.712;2023-08-21T03:02:20;99602.38;;;25.82;59.61
54306;BME280;66145;45.188;5.712;2023-08-21T03:04:46;99618.47;;;25.92;59.61
54306;BME280;66145;45.188;5.712;2023-08-21T03:07:11;99608.34;;;25.84;60.05
54306;BME280;66145;45.188;5.712;2023-08-21T03:09:37;99607.28;;;25.89;60.12
54306;BME280;66145;45.188;5.712;2023-08-21T03:12:03;99604.78;;;25.84;59.81
54306;BME280;66145;45.188;5.712;2023-08-21T03:14:28;99614.78;;;25.88;60.06
54306;BME280;66145;45.188;5.712;2023-08-21T03:16:54;99616.84;;;25.91;60.21
54306;BME280;66145;45.188;5.712;2023-08-21T03:19:19;99615.25;;;25.90;60.08
54306;BME280;66145;45.188;5.712;2023-08-21T03:21:44;99614.78;;;25.88;59.86
54306;BME280;66145;45.188;5.712;2023-08-21T03:24:10;99601.19;;;25.83;59.82
54306;BME280;66145;45.188;5.712;2023-08-21T03:26:35;99613.53;;;25.86;60.21
54306;BME280;66145;45.188;5.712;2023-08-21T03:29:01;99611.56;;;25.86;60.19
54306;BME280;66145;45.188;5.712;2023-08-21T03:31:26;99609.94;;;25.85;60.20
54306;BME280;66145;45.188;5.712;2023-08-21T03:33:52;99608.34;;;25.84;60.26
54306;BME280;66145;45.188;5.712;2023-08-21T03:36:17;99624.00;;;25.92;59.88
54306;BME280;66145;45.188;5.712;2023-08-21T03:38:44;99616.06;;;25.91;60.24
54306;BME280;66145;45.188;5.712;2023-08-21T03:41:09;99610.69;;;25.82;59.97
54306;BME280;66145;45.188;5.712;2023-08-21T03:43:35;99620.78;;;25.90;60.22
54306;BME280;66145;45.188;5.712;2023-08-21T03:46:00;99604.56;;;25.76;60.38
54306;BME280;66145;45.188;5.712;2023-08-21T03:48:25;99618.72;;;25.87;60.65
54306;BME280;66145;45.188;5.712;2023-08-21T03:50:51;99624.72;;;25.89;60.27
54306;BME280;66145;45.188;5.712;2023-08-21T03:53:16;99624.25;;;25.87;60.16
54306;BME280;66145;45.188;5.712;2023-08-21T03:55:41;99597.22;;;25.68;60.31
54306;BME280;66145;45.188;5.712;2023-08-21T03:58:07;99627.16;;;25.91;60.27
54306;BME280;66145;45.188;5.712;2023-08-21T04:00:32;99616.22;;;25.82;60.72
54306;BME280;66145;45.188;5.712;2023-08-21T04:02:58;99577.28;;;25.62;60.12
54306;BME280;66145;45.188;5.712;2023-08-21T04:05:23;99626.25;;;25.87;60.49
54306;BME280;66145;45.188;5.712;2023-08-21T04:07:49;99612.88;;;25.76;60.34
54306;BME280;66145;45.188;5.712;2023-08-21T04:10:14;99621.84;;;25.86;60.71
54306;BME280;66145;45.188;5.712;2023-08-21T04:12:41;99630.97;;;25.86;60.67
54306;BME280;66145;45.188;5.712;2023-08-21T04:15:06;99641.72;;;25.88;60.45
54306;BME280;66145;45.188;5.712;2023-08-21T04:17:32;99644.47;;;25.88;60.58
54306;BME280;66145;45.188;5.712;2023-08-21T04:19:57;99642.03;;;25.86;60.49
54306;BME280;66145;45.188;5.712;2023-08-21T04:22:23;99640.19;;;25.90;60.18
54306;BME280;66145;45.188;5.712;2023-08-21T04:24:48;99638.47;;;25.86;60.27
54306;BME280;66145;45.188;5.712;2023-08-21T04:27:13;99635.25;;;25.84;60.38
54306;BME280;66145;45.188;5.712;2023-08-21T04:29:39;99634.78;;;25.81;60.45
54306;BME280;66145;45.188;5.712;2023-08-21T04:32:05;99648.03;;;25.88;60.33
54306;BME280;66145;45.188;5.712;2023-08-21T04:34:34;99649.66;;;25.89;60.24
54306;BME280;66145;45.188;5.712;2023-08-21T04:36:59;99647.13;;;25.84;60.28
54306;BME280;66145;45.188;5.712;2023-08-21T04:39:25;99658.06;;;25.93;60.38
54306;BME280;66145;45.188;5.712;2023-08-21T04:41:50;99658.41;;;25.91;60.44
54306;BME280;66145;45.188;5.712;2023-08-21T04:44:16;99637.47;;;25.78;59.92
54306;BME280;66145;45.188;5.712;2023-08-21T04:46:41;99658.41;;;25.91;60.33
54306;BME280;66145;45.188;5.712;2023-08-21T04:49:06;99661.56;;;25.90;60.44
54306;BME280;66145;45.188;5.712;2023-08-21T04:51:32;99656.59;;;25.83;60.19
54306;BME280;66145;45.188;5.712;2023-08-21T04:53:57;99656.50;;;25.79;60.19
54306;BME280;66145;45.188;5.712;2023-08-21T04:56:24;99668.25;;;25.89;60.23
54306;BME280;66145;45.188;5.712;2023-08-21T04:58:50;99669.66;;;25.83;59.96
54306;BME280;66145;45.188;5.712;2023-08-21T05:01:18;99682.09;;;25.89;60.31
54306;BME280;66145;45.188;5.712;2023-08-21T05:03:44;99681.28;;;25.88;60.37
54306;BME280;66145;45.188;5.712;2023-08-21T05:06:09;99684.53;;;25.90;60.03
54306;BME280;66145;45.188;5.712;2023-08-21T05:08:34;99688.91;;;25.91;60.40
54306;BME280;66145;45.188;5.712;2023-08-21T05:11:00;99682.81;;;25.86;60.13
54306;BME280;66145;45.188;5.712;2023-08-21T05:13:26;99695.59;;;25.90;60.18
54306;BME280;66145;45.188;5.712;2023-08-21T05:15:53;99694.00;;;25.89;59.85
54306;BME280;66145;45.188;5.712;2023-08-21T05:18:22;99695.50;;;25.87;60.04
54306;BME280;66145;45.188;5.712;2023-08-21T05:20:49;99691.81;;;25.83;60.05
54306;BME280;66145;45.188;5.712;2023-08-21T05:23:15;99703.47;;;25.88;60.24
54306;BME280;66145;45.188;5.712;2023-08-21T05:25:40;99715.00;;;25.90;60.25
54306;BME280;66145;45.188;5.712;2023-08-21T05:28:06;99711.06;;;25.91;59.86
54306;BME280;66145;45.188;5.712;2023-08-21T05:30:32;99690.91;;;25.78;60.21
54306;BME280;66145;45.188;5.712;2023-08-21T05:32:57;99711.22;;;25.83;60.14
54306;BME280;66145;45.188;5.712;2023-08-21T05:35:23;99721.25;;;25.87;59.97
54306;BME280;66145;45.188;5.712;2023-08-21T05:37:48;99717.31;;;25.88;59.89
54306;BME280;66145;45.188;5.712;2023-08-21T05:40:14;99710.97;;;25.88;60.14
54306;BME280;66145;45.188;5.712;2023-08-21T05:42:39;99720.91;;;25.89;60.09
54306;BME280;66145;45.188;5.712;2023-08-21T05:45:05;99702.44;;;25.80;59.68
54306;BME280;66145;45.188;5.712;2023-08-21T05:47:31;99732.00;;;25.89;60.18
54306;BME280;66145;45.188;5.712;2023-08-21T05:49:56;99696.72;;;25.73;60.25
54306;BME280;66145;45.188;5.712;2023-08-21T05:52:22;99680.94;;;25.61;59.91
54306;BME280;66145;45.188;5.712;2023-08-21T05:54:48;99722.84;;;25.88;59.92
54306;BME280;66145;45.188;5.712;2023-08-21T05:57:13;99724.00;;;25.87;60.10
54306;BME280;66145;45.188;5.712;2023-08-21T05:59:46;99715.06;;;25.78;59.98
54306;BME280;66145;45.188;5.712;2023-08-21T06:02:12;99729.56;;;25.87;59.85
54306;BME280;66145;45.188;5.712;2023-08-21T06:04:40;99718.63;;;25.78;59.92
54306;BME280;66145;45.188;5.712;2023-08-21T06:07:05;99722.19;;;25.79;60.13
54306;BME280;66145;45.188;5.712;2023-08-21T06:09:31;99736.38;;;25.90;60.01
54306;BME280;66145;45.188;5.712;2023-08-21T06:11:59;99733.03;;;25.84;59.52
54306;BME280;66145;45.188;5.712;2023-08-21T06:14:25;99736.81;;;25.92;59.56
54306;BME280;66145;45.188;5.712;2023-08-21T06:16:56;99725.06;;;25.83;59.42
54306;BME280;66145;45.188;5.712;2023-08-21T06:19:21;99739.16;;;25.90;59.90
54306;BME280;66145;45.188;5.712;2023-08-21T06:21:47;99738.69;;;25.88;59.97
54306;BME280;66145;45.188;5.712;2023-08-21T06:24:12;99740.09;;;25.81;59.87
54306;BME280;66145;45.188;5.712;2023-08-21T06:26:37;99727.75;;;25.79;59.82
54306;BME280;66145;45.188;5.712;2023-08-21T06:29:03;99744.56;;;25.86;59.66
54306;BME280;66145;45.188;5.712;2023-08-21T06:31:28;99743.78;;;25.86;59.90
54306;BME280;66145;45.188;5.712;2023-08-21T06:33:54;99735.34;;;25.82;59.95
54306;BME280;66145;45.188;5.712;2023-08-21T06:36:19;99726.59;;;25.80;59.85
54306;BME280;66145;45.188;5.712;2023-08-21T06:38:44;99739.38;;;25.85;60.10
54306;BME280;66145;45.188;5.712;2023-08-21T06:41:10;99729.34;;;25.80;59.95
54306;BME280;66145;45.188;5.712;2023-08-21T06:43:35;99732.94;;;25.80;59.95
54306;BME280;66145;45.188;5.712;2023-08-21T06:46:01;99738.13;;;25.82;59.71
54306;BME280;66145;45.188;5.712;2023-08-21T06:48:26;99743.88;;;25.89;60.04
54306;BME280;66145;45.188;5.712;2023-08-21T06:50:52;99738.22;;;25.86;59.63
54306;BME280;66145;45.188;5.712;2023-08-21T06:53:17;99728.63;;;25.83;59.90
54306;BME280;66145;45.188;5.712;2023-08-21T06:55:45;99739.47;;;25.88;59.85
54306;BME280;66145;45.188;5.712;2023-08-21T06:58:11;99736.94;;;25.83;59.83
54306;BME280;66145;45.188;5.712;2023-08-21T07:00:36;99738.69;;;25.88;59.98
54306;BME280;66145;45.188;5.712;2023-08-21T07:03:02;99742.25;;;25.88;59.69
54306;BME280;66145;45.188;5.712;2023-08-21T07:05:28;99719.44;;;25.79;59.59
54306;BME280;66145;45.188;5.712;2023-08-21T07:07:53;99735.66;;;25.93;59.56
54306;BME280;66145;45.188;5.712;2023-08-21T07:10:20;99736.81;;;25.92;59.98
54306;BME280;66145;45.188;5.712;2023-08-21T07:12:45;99725.53;;;25.85;59.36
54306;BME280;66145;45.188;5.712;2023-08-21T07:15:11;99735.66;;;25.93;59.31
54306;BME280;66145;45.188;5.712;2023-08-21T07:17:36;99733.69;;;25.93;59.74
54306;BME280;66145;45.188;5.712;2023-08-21T07:20:02;99739.94;;;25.90;59.27
54306;BME280;66145;45.188;5.712;2023-08-21T07:22:29;99731.78;;;25.81;57.52
54306;BME280;66145;45.188;5.712;2023-08-21T07:24:54;99724.84;;;25.75;56.52
54306;BME280;66145;45.188;5.712;2023-08-21T07:27:20;99735.34;;;25.82;55.79
54306;BME280;66145;45.188;5.712;2023-08-21T07:29:45;99737.22;;;25.78;56.44
54306;BME280;66145;45.188;5.712;2023-08-21T07:32:12;99722.69;;;25.69;56.33
54306;BME280;66145;45.188;5.712;2023-08-21T07:34:37;99733.63;;;25.77;56.34
54306;BME280;66145;45.188;5.712;2023-08-21T07:37:02;99734.78;;;25.76;55.67
54306;BME280;66145;45.188;5.712;2023-08-21T07:39:28;99731.22;;;25.76;55.22
54306;BME280;66145;45.188;5.712;2023-08-21T07:41:53;99715.09;;;25.65;55.65
54306;BME280;66145;45.188;5.712;2023-08-21T07:44:18;99729.59;;;25.75;55.23
54306;BME280;66145;45.188;5.712;2023-08-21T07:46:44;99731.56;;;25.74;55.18
54306;BME280;66145;45.188;5.712;2023-08-21T07:49:10;99730.06;;;25.77;55.64
54306;BME280;66145;45.188;5.712;2023-08-21T07:51:35;99709.44;;;25.62;55.37
54306;BME280;66145;45.188;5.712;2023-08-21T07:54:01;99728.91;;;25.78;54.39
54306;BME280;66145;45.188;5.712;2023-08-21T07:56:27;99729.22;;;25.76;53.63
54306;BME280;66145;45.188;5.712;2023-08-21T07:58:52;99718.50;;;25.75;54.34
54306;BME280;66145;45.188;5.712;2023-08-21T08:01:17;99702.84;;;25.66;53.46
54306;BME280;66145;45.188;5.712;2023-08-21T08:03:43;99717.34;;;25.76;53.89
54306;BME280;66145;45.188;5.712;2023-08-21T08:06:08;99712.97;;;25.75;54.00
54306;BME280;66145;45.188;5.712;2023-08-21T08:08:34;99711.13;;;25.79;53.06
54306;BME280;66145;45.188;5.712;2023-08-21T08:11:03;99707.28;;;25.84;52.39
54306;BME280;66145;45.188;5.712;2023-08-21T08:13:29;99716.16;;;25.89;54.18
54306;BME280;66145;45.188;5.712;2023-08-21T08:15:54;99693.06;;;25.85;54.02
54306;BME280;66145;45.188;5.712;2023-08-21T08:18:20;99697.81;;;25.85;53.38
54306;BME280;66145;45.188;5.712;2023-08-21T08:20:45;99699.19;;;25.91;51.91
54306;BME280;66145;45.188;5.712;2023-08-21T08:23:10;99693.44;;;25.84;53.80
54306;BME280;66145;45.188;5.712;2023-08-21T08:25:36;99704.38;;;25.92;52.78
54306;BME280;66145;45.188;5.712;2023-08-21T08:28:02;99677.19;;;25.82;52.64
54306;BME280;66145;45.188;5.712;2023-08-21T08:30:27;99690.50;;;25.92;52.66
54306;BME280;66145;45.188;5.712;2023-08-21T08:32:53;99691.22;;;25.89;52.33
54306;BME280;66145;45.188;5.712;2023-08-21T08:35:18;99688.53;;;25.93;52.06
54306;BME280;66145;45.188;5.712;2023-08-21T08:37:44;99681.28;;;25.88;53.59
54306;BME280;66145;45.188;5.712;2023-08-21T08:40:12;99676.13;;;25.87;53.41
54306;BME280;66145;45.188;5.712;2023-08-21T08:42:38;99665.28;;;25.81;52.52
54306;BME280;66145;45.188;5.712;2023-08-21T08:45:04;99673.06;;;25.92;53.01
54306;BME280;66145;45.188;5.712;2023-08-21T08:47:34;99680.06;;;26.02;51.94
54306;BME280;66145;45.188;5.712;2023-08-21T08:50:06;99662.44;;;25.94;51.77
54306;BME280;66145;45.188;5.712;2023-08-21T08:52:39;99671.88;;;26.05;52.14
54306;BME280;66145;45.188;5.712;2023-08-21T08:55:05;99661.94;;;26.04;50.59
54306;BME280;66145;45.188;5.712;2023-08-21T08:57:33;99668.81;;;26.10;50.38
54306;BME280;66145;45.188;5.712;2023-08-21T08:59:59;99662.03;;;26.08;50.68
54306;BME280;66145;45.188;5.712;2023-08-21T09:02:25;99654.34;;;26.01;50.93
54306;BME280;66145;45.188;5.712;2023-08-21T09:04:53;99651.91;;;26.00;50.69
54306;BME280;66145;45.188;5.712;2023-08-21T09:07:19;99662.59;;;26.14;50.76
54306;BME280;66145;45.188;5.712;2023-08-21T09:09:46;99640.47;;;26.01;51.05
54306;BME280;66145;45.188;5.712;2023-08-21T09:12:13;99651.16;;;26.15;51.97
54306;BME280;66145;45.188;5.712;2023-08-21T09:14:40;99647.97;;;26.13;51.29
54306;BME280;66145;45.188;5.712;2023-08-21T09:17:06;99640.88;;;26.16;50.40
54306;BME280;66145;45.188;5.712;2023-08-21T09:19:32;99640.72;;;26.24;50.58
54306;BME280;66145;45.188;5.712;2023-08-21T09:21:57;99650.19;;;26.23;50.80
54306;BME280;66145;45.188;5.712;2023-08-21T09:24:23;99641.78;;;26.20;51.03
54306;BME280;66145;45.188;5.712;2023-08-21T09:26:49;99645.34;;;26.20;51.23
54306;BME280;66145;45.188;5.712;2023-08-21T09:29:15;99637.88;;;26.21;50.65
54306;BME280;66145;45.188;5.712;2023-08-21T09:31:40;99617.31;;;26.09;51.72
54306;BME280;66145;45.188;5.712;2023-08-21T09:34:06;99633.13;;;26.21;51.32
54306;BME280;66145;45.188;5.712;2023-08-21T09:36:34;99620.78;;;26.19;50.62
54306;BME280;66145;45.188;5.712;2023-08-21T09:39:01;99625.69;;;26.25;49.84
54306;BME280;66145;45.188;5.712;2023-08-21T09:41:27;99592.53;;;26.13;49.73
54306;BME280;66145;45.188;5.712;2023-08-21T09:43:58;99620.59;;;26.27;49.81
54306;BME280;66145;45.188;5.712;2023-08-21T09:46:25;99609.50;;;26.27;48.39
54306;BME280;66145;45.188;5.712;2023-08-21T09:48:54;99613.91;;;26.29;48.89
54306;BME280;66145;45.188;5.712;2023-08-21T09:51:20;99600.56;;;26.34;48.34
54306;BME280;66145;45.188;5.712;2023-08-21T09:53:48;99613.09;;;26.44;47.38
54306;BME280;66145;45.188;5.712;2023-08-21T09:56:14;99604.31;;;26.42;49.28
54306;BME280;66145;45.188;5.712;2023-08-21T09:58:40;99602.47;;;26.46;47.44
54306;BME280;66145;45.188;5.712;2023-08-21T10:01:07;99573.66;;;26.19;47.99
54306;BME280;66145;45.188;5.712;2023-08-21T10:03:38;99595.63;;;26.44;47.32
54306;BME280;66145;45.188;5.712;2023-08-21T10:06:06;99591.00;;;26.48;47.80
54306;BME280;66145;45.188;5.712;2023-08-21T10:08:32;99582.59;;;26.44;48.01
54306;BME280;66145;45.188;5.712;2023-08-21T10:11:04;99591.53;;;26.53;47.38
54306;BME280;66145;45.188;5.712;2023-08-21T10:13:31;99577.13;;;26.48;47.82
54306;BME280;66145;45.188;5.712;2023-08-21T10:15:57;99586.03;;;26.57;47.74
54306;BME280;66145;45.188;5.712;2023-08-21T10:18:24;99583.81;;;26.63;48.01
54306;BME280;66145;45.188;5.712;2023-08-21T10:20:51;99540.34;;;26.35;47.61
54306;BME280;66145;45.188;5.712;2023-08-21T10:23:30;99570.75;;;26.63;46.85
54306;BME280;66145;45.188;5.712;2023-08-21T10:25:57;99579.31;;;26.74;46.04
54306;BME280;66145;45.188;5.712;2023-08-21T10:28:22;99561.50;;;26.75;45.58
54306;BME280;66145;45.188;5.712;2023-08-21T10:30:49;99573.41;;;26.76;46.75
54306;BME280;66145;45.188;5.712;2023-08-21T10:33:14;99563.34;;;26.51;50.29
54306;BME280;66145;45.188;5.712;2023-08-21T10:35:39;99567.56;;;26.45;48.40
54306;BME280;66145;45.188;5.712;2023-08-21T10:38:18;99533.91;;;26.63;47.19
54306;BME280;66145;45.188;5.712;2023-08-21T10:41:06;99560.38;;;26.96;46.35
54306;BME280;66145;45.188;5.712;2023-08-21T10:43:43;99546.69;;;27.03;46.36
54306;BME280;66145;45.188;5.712;2023-08-21T10:46:10;99556.25;;;27.06;46.47
54306;BME280;66145;45.188;5.712;2023-08-21T10:48:36;99552.97;;;27.20;45.45
54306;BME280;66145;45.188;5.712;2023-08-21T10:51:04;99526.31;;;27.15;46.47
54306;BME280;66145;45.188;5.712;2023-08-21T10:53:31;99541.72;;;27.32;45.23
54306;BME280;66145;45.188;5.712;2023-08-21T10:55:57;99546.97;;;27.37;45.43
54306;BME280;66145;45.188;5.712;2023-08-21T10:58:22;99532.38;;;27.40;45.74
54306;BME280;66145;45.188;5.712;2023-08-21T11:01:00;99527.09;;;27.35;45.93
54306;BME280;66145;45.188;5.712;2023-08-21T11:03:25;99539.88;;;27.40;45.92
54306;BME280;66145;45.188;5.712;2023-08-21T11:06:04;99503.06;;;27.23;45.62
54306;BME280;66145;45.188;5.712;2023-08-21T11:08:32;99528.13;;;27.07;49.24
54306;BME280;66145;45.188;5.712;2023-08-21T11:10:58;99520.81;;;26.79;49.94
54306;BME280;66145;45.188;5.712;2023-08-21T11:13:24;99510.63;;;26.67;50.77
54306;BME280;66145;45.188;5.712;2023-08-21T11:16:00;99493.34;;;26.58;50.59
54306;BME280;66145;45.188;5.712;2023-08-21T11:18:37;99521.84;;;26.75;50.98
54306;BME280;66145;45.188;5.712;2023-08-21T11:21:11;99506.16;;;26.63;50.85
54306;BME280;66145;45.188;5.712;2023-08-21T11:23:38;99515.28;;;26.63;51.50
54306;BME280;66145;45.188;5.712;2023-08-21T11:26:04;99510.44;;;26.60;51.20
54306;BME280;66145;45.188;5.712;2023-08-21T11:28:31;99492.75;;;26.49;51.48
54306;BME280;66145;45.188;5.712;2023-08-21T11:30:57;99516.50;;;26.66;51.96
54306;BME280;66145;45.188;5.712;2023-08-21T11:33:22;99506.06;;;26.59;51.82
54306;BME280;66145;45.188;5.712;2023-08-21T11:35:48;99503.66;;;26.57;51.64
54306;BME280;66145;45.188;5.712;2023-08-21T11:38:21;99496.56;;;26.60;52.00
54306;BME280;66145;45.188;5.712;2023-08-21T11:40:54;99506.06;;;26.59;51.97
54306;BME280;66145;45.188;5.712;2023-08-21T11:43:19;99493.34;;;26.58;51.93
54306;BME280;66145;45.188;5.712;2023-08-21T11:45:48;99490.06;;;26.52;52.44
54306;BME280;66145;45.188;5.712;2023-08-21T11:48:14;99478.06;;;26.48;52.48
54306;BME280;66145;45.188;5.712;2023-08-21T11:50:39;99473.63;;;26.44;52.37
54306;BME280;66145;45.188;5.712;2023-08-21T11:53:05;99477.34;;;26.51;52.24
54306;BME280;66145;45.188;5.712;2023-08-21T11:55:31;99478.88;;;26.49;52.46
54306;BME280;66145;45.188;5.712;2023-08-21T11:57:57;99478.88;;;26.49;52.51
54306;BME280;66145;45.188;5.712;2023-08-21T12:00:27;99462.91;;;26.42;52.47
54306;BME280;66145;45.188;5.712;2023-08-21T12:03:00;99453.69;;;26.38;52.94
54306;BME280;66145;45.188;5.712;2023-08-21T12:05:28;99456.47;;;26.38;52.70
54306;BME280;66145;45.188;5.712;2023-08-21T12:07:54;99427.97;;;26.21;53.37
54306;BME280;66145;45.188;5.712;2023-08-21T12:10:29;99454.06;;;26.36;52.89
54306;BME280;66145;45.188;5.712;2023-08-21T12:12:55;99454.56;;;26.42;52.94
54306;BME280;66145;45.188;5.712;2023-08-21T12:15:20;99448.84;;;26.35;53.28
54306;BME280;66145;45.188;5.712;2023-08-21T12:17:46;99445.81;;;26.40;53.27
54306;BME280;66145;45.188;5.712;2023-08-21T12:20:11;99442.59;;;26.38;53.19
54306;BME280;66145;45.188;5.712;2023-08-21T12:22:38;99440.53;;;26.35;53.08
54306;BME280;66145;45.188;5.712;2023-08-21T12:25:04;99441.44;;;26.39;53.01
54306;BME280;66145;45.188;5.712;2023-08-21T12:27:30;99438.66;;;26.39;53.74
54306;BME280;66145;45.188;5.712;2023-08-21T12:29:55;99415.00;;;26.25;53.41
54306;BME280;66145;45.188;5.712;2023-08-21T12:32:21;99427.94;;;26.37;53.47
54306;BME280;66145;45.188;5.712;2023-08-21T12:34:46;99433.56;;;26.41;53.67
54306;BME280;66145;45.188;5.712;2023-08-21T12:37:12;99408.63;;;26.25;53.28
54306;BME280;66145;45.188;5.712;2023-08-21T12:39:37;99431.94;;;26.40;53.54
54306;BME280;66145;45.188;5.712;2023-08-21T12:42:02;99414.72;;;26.31;53.50
54306;BME280;66145;45.188;5.712;2023-08-21T12:44:28;99417.50;;;26.31;53.61
54306;BME280;66145;45.188;5.712;2023-08-21T12:46:54;99402.81;;;26.30;53.60
54306;BME280;66145;45.188;5.712;2023-08-21T12:49:19;99414.41;;;26.36;54.08
54306;BME280;66145;45.188;5.712;2023-08-21T12:51:44;99412.09;;;26.38;53.83
54306;BME280;66145;45.188;5.712;2023-08-21T12:54:10;99410.13;;;26.38;54.01
54306;BME280;66145;45.188;5.712;2023-08-21T12:56:35;99381.88;;;26.13;53.86
54306;BME280;66145;45.188;5.712;2023-08-21T12:59:00;99398.16;;;26.34;54.15